createdAt,value
2022-08-26T00:01:54.174Z,41.15
2022-08-26T00:04:25.035Z,41.58
2022-08-26T00:06:53.751Z,41.55
2022-08-26T00:09:21.535Z,39.92
2022-08-26T00:11:49.173Z,41.65
2022-08-26T00:14:18.409Z,40.40
2022-08-26T00:16:48.103Z,39.70
2022-08-26T00:19:17.965Z,40.08
2022-08-26T00:21:48.646Z,42.35
2022-08-26T00:24:20.862Z,41.50
2022-08-26T00:26:49.410Z,40.67
2022-08-26T00:29:17.901Z,42.58
2022-08-26T00:31:45.800Z,42.33
2022-08-26T00:34:14.311Z,41.53
2022-08-26T00:36:43.700Z,43.15
2022-08-26T00:39:11.525Z,42.10
2022-08-26T00:41:40.758Z,39.95
2022-08-26T00:44:11.072Z,40.03
2022-08-26T00:46:46.939Z,40.97
2022-08-26T00:49:25.842Z,39.83
2022-08-26T00:51:56.859Z,39.17
2022-08-26T00:54:27.674Z,39.00
2022-08-26T00:57:00.785Z,40.55
2022-08-26T00:59:32.792Z,40.17
2022-08-26T01:02:02.850Z,38.22
2022-08-26T01:04:33.460Z,39.50
2022-08-26T01:07:02.322Z,38.80
2022-08-26T01:09:30.954Z,37.75
2022-08-26T01:12:02.850Z,45.95
2022-08-26T01:14:34.865Z,38.38
2022-08-26T01:17:07.191Z,37.00
2022-08-26T01:19:49.022Z,38.83
2022-08-26T01:22:22.782Z,36.50
2022-08-26T01:24:57.401Z,35.08
2022-08-26T01:27:27.319Z,36.47
2022-08-26T01:30:01.586Z,35.95
2022-08-26T01:32:31.745Z,33.80
2022-08-26T01:34:59.660Z,34.70
2022-08-26T01:37:32.921Z,34.67
2022-08-26T01:40:00.768Z,33.78
2022-08-26T01:42:28.929Z,33.72
2022-08-26T01:45:09.760Z,33.75
2022-08-26T01:47:38.701Z,34.65
2022-08-26T01:50:12.013Z,32.75
2022-08-26T01:52:42.699Z,33.70
2022-08-26T01:55:15.239Z,31.50
2022-08-26T01:58:01.700Z,33.25
2022-08-26T02:00:29.753Z,30.90
2022-08-26T02:03:16.627Z,28.67
2022-08-26T02:05:47.448Z,26.83
2022-08-26T02:08:24.807Z,28.35
2022-08-26T02:10:54.846Z,29.80
2022-08-26T02:13:26.571Z,28.42
2022-08-26T02:15:55.297Z,28.25
2022-08-26T02:18:23.879Z,26.17
2022-08-26T02:20:54.441Z,26.33
2022-08-26T02:23:24.382Z,24.63
2022-08-26T02:26:10.117Z,24.73
2022-08-26T02:29:08.664Z,24.60
2022-08-26T02:31:36.312Z,22.92
2022-08-26T02:34:15.232Z,22.63
2022-08-26T02:36:43.153Z,21.38
2022-08-26T02:39:10.932Z,22.92
2022-08-26T02:41:44.869Z,20.75
2022-08-26T02:44:13.223Z,20.55
2022-08-26T02:46:41.737Z,19.73
2022-08-26T02:49:16.253Z,19.45
2022-08-26T02:51:44.975Z,19.63
2022-08-26T02:54:13.387Z,17.33
2022-08-26T02:56:40.726Z,18.38
2022-08-26T02:59:08.157Z,17.80
2022-08-26T03:01:36.539Z,18.02
2022-08-26T03:04:06.247Z,17.65
2022-08-26T03:06:33.825Z,16.42
2022-08-26T03:09:01.134Z,15.30
2022-08-26T03:11:32.968Z,14.60
2022-08-26T03:14:01.718Z,14.55
2022-08-26T03:16:36.118Z,15.75
2022-08-26T03:19:06.595Z,15.77
2022-08-26T03:21:37.072Z,14.77
2022-08-26T03:24:05.727Z,14.60
2022-08-26T03:26:33.286Z,14.57
2022-08-26T03:29:19.423Z,14.50
2022-08-26T03:31:47.173Z,14.25
2022-08-26T03:34:15.235Z,14.13
2022-08-26T03:36:43.302Z,12.32
2022-08-26T03:39:12.504Z,13.32
2022-08-26T03:41:40.476Z,12.63
2022-08-26T03:44:09.039Z,11.57
2022-08-26T03:46:38.451Z,11.63
2022-08-26T03:49:06.753Z,12.52
2022-08-26T03:51:38.930Z,11.75
2022-08-26T03:54:08.280Z,11.55
2022-08-26T03:56:36.766Z,11.55
2022-08-26T03:59:05.098Z,11.35
2022-08-26T04:01:36.236Z,11.30
2022-08-26T04:04:04.367Z,10.38
2022-08-26T04:06:43.296Z,10.63
2022-08-26T04:09:14.943Z,9.95
2022-08-26T04:11:44.166Z,9.68
2022-08-26T04:14:20.211Z,9.35
2022-08-26T04:16:49.009Z,9.77
2022-08-26T04:19:17.345Z,9.65
2022-08-26T04:21:47.152Z,8.98
2022-08-26T04:24:17.676Z,9.35
2022-08-26T04:26:45.447Z,9.27
2022-08-26T04:29:17.990Z,9.15
2022-08-26T04:31:48.053Z,8.63
2022-08-26T04:34:16.393Z,8.95
2022-08-26T04:36:44.532Z,8.38
2022-08-26T04:39:16.488Z,7.43
2022-08-26T04:41:44.803Z,7.78
2022-08-26T04:44:12.155Z,7.45
2022-08-26T04:46:43.849Z,6.50
2022-08-26T04:49:12.289Z,6.45
2022-08-26T04:51:40.274Z,6.18
2022-08-26T04:54:07.702Z,6.60
2022-08-26T04:56:38.259Z,7.05
2022-08-26T04:59:08.067Z,6.72
2022-08-26T05:01:50.723Z,6.40
2022-08-26T05:04:19.889Z,5.35
2022-08-26T05:06:48.414Z,5.75
2022-08-26T05:09:16.016Z,6.10
2022-08-26T05:11:43.467Z,6.28
2022-08-26T05:14:10.810Z,5.90
2022-08-26T05:16:38.972Z,5.40
2022-08-26T05:19:08.483Z,5.93
2022-08-26T05:21:37.052Z,5.80
2022-08-26T05:24:06.721Z,5.65
2022-08-26T05:26:34.170Z,5.65
2022-08-26T05:29:01.581Z,5.32
2022-08-26T05:31:32.008Z,5.40
2022-08-26T05:34:04.387Z,5.43
2022-08-26T05:36:34.955Z,5.78
2022-08-26T05:39:07.784Z,5.53
2022-08-26T05:41:41.220Z,5.45
2022-08-26T05:44:12.652Z,5.57
2022-08-26T05:46:42.409Z,5.80
2022-08-26T05:49:13.524Z,4.88
2022-08-26T05:51:45.079Z,5.75
2022-08-26T05:54:14.213Z,5.22
2022-08-26T05:56:49.130Z,4.53
2022-08-26T05:59:21.380Z,4.82
2022-08-26T06:01:54.797Z,4.90
2022-08-26T06:04:28.895Z,4.82
2022-08-26T06:06:57.207Z,4.75
2022-08-26T06:09:24.796Z,5.00
2022-08-26T06:11:52.175Z,4.10
2022-08-26T06:14:21.118Z,4.78
2022-08-26T06:16:48.480Z,4.20
2022-08-26T06:19:16.130Z,4.13
2022-08-26T06:21:47.919Z,4.38
2022-08-26T06:24:40.019Z,4.05
2022-08-26T06:27:09.973Z,3.50
2022-08-26T06:29:38.843Z,4.15
2022-08-26T06:32:06.839Z,3.83
2022-08-26T06:34:34.251Z,4.15
2022-08-26T06:37:02.820Z,4.05
2022-08-26T06:39:32.001Z,3.83
2022-08-26T06:42:03.159Z,4.10
2022-08-26T06:44:34.582Z,4.20
2022-08-26T06:47:01.958Z,3.85
2022-08-26T06:49:29.382Z,4.03
2022-08-26T06:51:59.999Z,3.92
2022-08-26T06:54:31.482Z,4.03
2022-08-26T06:56:59.384Z,4.43
2022-08-26T06:59:26.778Z,4.03
2022-08-26T07:01:54.686Z,3.33
2022-08-26T07:04:24.462Z,3.58
2022-08-26T07:06:54.038Z,3.60
2022-08-26T07:09:23.335Z,3.58
2022-08-26T07:11:52.060Z,3.45
2022-08-26T07:14:21.461Z,3.55
2022-08-26T07:16:50.527Z,3.28
2022-08-26T07:19:30.632Z,4.18
2022-08-26T07:22:05.438Z,3.17
2022-08-26T07:24:35.480Z,3.58
2022-08-26T07:27:05.807Z,3.20
2022-08-26T07:29:34.385Z,2.97
2022-08-26T07:32:02.284Z,3.08
2022-08-26T07:34:32.159Z,2.75
2022-08-26T07:37:00.591Z,3.00
2022-08-26T07:39:31.473Z,3.00
2022-08-26T07:42:01.761Z,3.38
2022-08-26T07:44:36.056Z,2.88
2022-08-26T07:47:03.495Z,2.83
2022-08-26T07:49:38.407Z,2.60
2022-08-26T07:52:06.682Z,3.38
2022-08-26T07:54:34.021Z,2.10
2022-08-26T07:57:01.529Z,1.85
2022-08-26T07:59:32.626Z,2.42
2022-08-26T08:02:00.671Z,2.30
2022-08-26T08:04:28.326Z,2.22
2022-08-26T08:06:55.763Z,2.17
2022-08-26T08:09:23.784Z,2.55
2022-08-26T08:11:52.974Z,1.83
2022-08-26T08:14:22.363Z,1.92
2022-08-26T08:16:51.145Z,2.47
2022-08-26T08:19:23.167Z,1.80
2022-08-26T08:21:51.493Z,2.38
2022-08-26T08:24:19.786Z,1.90
2022-08-26T08:26:47.938Z,1.92
2022-08-26T08:29:15.289Z,2.42
2022-08-26T08:31:57.758Z,1.90
2022-08-26T08:34:26.883Z,1.60
2022-08-26T08:36:54.786Z,1.65
2022-08-26T08:39:22.519Z,1.75
2022-08-26T08:42:08.885Z,1.65
2022-08-26T08:44:43.093Z,1.30
2022-08-26T08:47:38.577Z,1.48
2022-08-26T08:50:47.871Z,2.20
2022-08-26T08:53:34.253Z,1.65
2022-08-26T08:56:26.577Z,1.60
2022-08-26T08:59:24.501Z,2.00
2022-08-26T09:02:04.746Z,1.77
2022-08-26T09:04:55.850Z,1.80
2022-08-26T09:07:49.025Z,1.90
2022-08-26T09:10:30.208Z,1.83
2022-08-26T09:12:58.639Z,2.05
2022-08-26T09:15:42.763Z,2.03
2022-08-26T09:18:28.583Z,1.70
2022-08-26T09:21:00.740Z,2.00
2022-08-26T09:23:28.350Z,1.58
2022-08-26T09:26:02.045Z,1.98
2022-08-26T09:28:31.198Z,2.10
2022-08-26T09:31:14.095Z,2.08
2022-08-26T09:33:42.831Z,1.67
2022-08-26T09:36:24.851Z,2.00
2022-08-26T09:38:53.845Z,2.53
2022-08-26T09:41:25.994Z,2.42
2022-08-26T09:44:16.910Z,2.65
2022-08-26T09:46:57.802Z,2.03
2022-08-26T09:49:35.553Z,2.30
2022-08-26T09:52:09.007Z,2.00
2022-08-26T09:54:38.692Z,2.10
2022-08-26T09:57:18.013Z,2.10
2022-08-26T09:59:46.125Z,1.80
2022-08-26T10:02:34.698Z,1.92
2022-08-26T10:05:09.431Z,2.70
2022-08-26T10:07:40.474Z,2.08
2022-08-26T10:10:23.979Z,1.50
2022-08-26T10:13:03.866Z,1.80
2022-08-26T10:15:41.692Z,3.35
2022-08-26T10:18:22.088Z,2.17
2022-08-26T10:20:55.932Z,1.90
2022-08-26T10:23:27.021Z,2.65
2022-08-26T10:26:09.588Z,2.25
2022-08-26T10:29:03.718Z,2.17
2022-08-26T10:34:12.513Z,1.77
2022-08-26T10:37:14.092Z,1.90
2022-08-26T10:39:55.236Z,1.98
2022-08-26T10:42:35.422Z,1.70
2022-08-26T10:45:15.107Z,2.22
2022-08-26T10:48:01.484Z,1.98
2022-08-26T10:50:41.385Z,1.85
2022-08-26T10:53:36.793Z,1.77
2022-08-26T10:56:15.825Z,2.00
2022-08-26T10:58:52.628Z,1.83
2022-08-26T11:01:41.283Z,1.85
2022-08-26T11:04:37.348Z,1.90
2022-08-26T11:07:32.531Z,1.98
2022-08-26T11:10:05.901Z,2.05
2022-08-26T11:12:37.226Z,2.67
2022-08-26T11:15:10.037Z,2.78
2022-08-26T11:17:46.808Z,1.60
2022-08-26T11:20:23.866Z,1.95
2022-08-26T11:22:53.849Z,1.65
2022-08-26T11:25:29.156Z,1.90
2022-08-26T11:27:59.871Z,1.60
2022-08-26T11:30:40.938Z,2.13
2022-08-26T11:33:09.184Z,1.63
2022-08-26T11:35:37.533Z,2.50
2022-08-26T11:38:25.869Z,2.35
2022-08-26T11:41:06.781Z,1.77
2022-08-26T11:43:34.576Z,1.80
2022-08-26T11:46:11.143Z,1.90
2022-08-26T11:48:41.053Z,1.90
2022-08-26T11:51:13.406Z,2.10
2022-08-26T11:53:44.399Z,1.67
2022-08-26T11:56:33.157Z,2.50
2022-08-26T11:59:03.858Z,2.03
2022-08-26T12:01:35.683Z,1.88
2022-08-26T12:04:07.043Z,2.97
2022-08-26T12:06:38.875Z,1.95
2022-08-26T12:09:25.855Z,2.33
2022-08-26T12:12:08.728Z,2.03
2022-08-26T12:14:39.789Z,2.55
2022-08-26T12:17:19.396Z,1.85
2022-08-26T12:19:49.837Z,1.88
2022-08-26T12:22:22.534Z,2.22
2022-08-26T12:24:56.575Z,2.13
2022-08-26T12:27:34.448Z,2.40
2022-08-26T12:30:10.037Z,2.53
2022-08-26T12:32:57.175Z,1.90
2022-08-26T12:35:28.647Z,2.45
2022-08-26T12:37:57.678Z,1.92
2022-08-26T12:40:31.343Z,1.77
2022-08-26T12:43:01.863Z,1.93
2022-08-26T12:45:39.410Z,2.50
2022-08-26T12:48:13.578Z,2.28
2022-08-26T12:50:47.579Z,2.22
2022-08-26T12:53:25.887Z,2.45
2022-08-26T12:55:57.650Z,2.08
2022-08-26T12:58:39.382Z,2.22
2022-08-26T13:01:06.925Z,1.92
2022-08-26T13:03:34.434Z,2.28
2022-08-26T13:06:29.888Z,2.53
2022-08-26T13:08:57.659Z,2.05
2022-08-26T13:11:31.907Z,2.55
2022-08-26T13:14:02.376Z,2.55
2022-08-26T13:16:35.731Z,2.47
2022-08-26T13:19:10.501Z,2.47
2022-08-26T13:21:43.807Z,2.70
2022-08-26T13:24:14.302Z,2.28
2022-08-26T13:26:43.943Z,2.25
2022-08-26T13:29:11.786Z,2.35
2022-08-26T13:31:41.090Z,2.42
2022-08-26T13:34:11.249Z,2.20
2022-08-26T13:36:39.147Z,3.05
2022-08-26T13:39:06.670Z,2.65
2022-08-26T13:41:34.019Z,2.38
2022-08-26T13:44:01.386Z,3.05
2022-08-26T13:46:29.310Z,2.03
2022-08-26T13:48:57.853Z,2.00
2022-08-26T13:51:27.075Z,2.40
2022-08-26T13:53:54.510Z,2.58
2022-08-26T13:56:22.946Z,2.00
2022-08-26T13:58:50.564Z,2.20
2022-08-26T14:01:18.267Z,2.70
2022-08-26T14:03:46.314Z,2.00
2022-08-26T14:06:13.935Z,2.08
2022-08-26T14:08:41.802Z,2.42
2022-08-26T14:11:09.738Z,2.42
2022-08-26T14:13:37.554Z,2.22
2022-08-26T14:16:10.181Z,2.30
2022-08-26T14:18:42.112Z,2.65
2022-08-26T14:21:12.663Z,2.35
2022-08-26T14:23:40.244Z,1.77
2022-08-26T14:26:08.362Z,1.90
2022-08-26T14:28:36.196Z,2.00
2022-08-26T14:31:04.860Z,1.50
2022-08-26T14:33:37.197Z,2.05
2022-08-26T14:36:24.506Z,1.63
2022-08-26T14:38:52.212Z,1.70
2022-08-26T14:41:20.828Z,2.10
2022-08-26T14:43:54.420Z,1.73
2022-08-26T14:46:22.006Z,1.92
2022-08-26T14:48:49.383Z,2.05
2022-08-26T14:51:16.730Z,1.70
2022-08-26T14:54:02.468Z,2.08
2022-08-26T14:56:31.233Z,1.77
2022-08-26T14:58:58.517Z,1.40
2022-08-26T15:01:30.757Z,1.27
2022-08-26T15:04:00.380Z,1.42
2022-08-26T15:06:29.995Z,1.60
2022-08-26T15:08:57.889Z,1.45
2022-08-26T15:11:25.401Z,1.55
2022-08-26T15:13:53.236Z,1.48
2022-08-26T15:16:21.218Z,1.92
2022-08-26T15:18:49.516Z,1.50
2022-08-26T15:21:17.531Z,1.45
2022-08-26T15:23:47.868Z,1.40
2022-08-26T15:26:16.254Z,1.20
2022-08-26T15:28:43.694Z,1.30
2022-08-26T15:31:11.200Z,1.20
2022-08-26T15:33:39.580Z,1.50
2022-08-26T15:36:08.037Z,1.30
2022-08-26T15:38:41.404Z,1.40
2022-08-26T15:41:09.310Z,1.30
2022-08-26T15:43:37.985Z,1.20
2022-08-26T15:46:10.275Z,1.13
2022-08-26T15:48:38.410Z,1.10
2022-08-26T15:51:06.941Z,1.33
2022-08-26T15:53:34.930Z,1.73
2022-08-26T15:56:02.735Z,1.00
2022-08-26T15:58:30.715Z,1.08
2022-08-26T16:00:58.510Z,1.83
2022-08-26T16:03:25.836Z,1.77
2022-08-26T16:05:53.460Z,1.50
2022-08-26T16:08:22.271Z,1.25
2022-08-26T16:10:51.284Z,1.55
2022-08-26T16:13:20.104Z,1.15
2022-08-26T16:15:48.315Z,1.27
2022-08-26T16:18:16.047Z,1.35
2022-08-26T16:21:12.920Z,1.25
2022-08-26T16:23:39.926Z,1.35
2022-08-26T16:26:12.730Z,1.60
2022-08-26T16:28:40.068Z,0.98
2022-08-26T16:31:07.579Z,1.10
2022-08-26T16:33:34.937Z,1.10
2022-08-26T16:36:02.443Z,1.20
2022-08-26T16:38:29.845Z,1.65
2022-08-26T16:40:58.720Z,1.30
2022-08-26T16:43:26.089Z,2.10
2022-08-26T16:45:53.479Z,1.27
2022-08-26T16:48:20.885Z,1.48
2022-08-26T16:50:48.812Z,1.67
2022-08-26T16:53:16.332Z,1.40
2022-08-26T16:55:48.347Z,1.40
2022-08-26T16:58:16.737Z,1.20
2022-08-26T17:00:45.145Z,1.10
2022-08-26T17:03:12.950Z,1.17
2022-08-26T17:05:40.605Z,1.00
2022-08-26T17:08:08.053Z,0.80
2022-08-26T17:10:35.534Z,1.40
2022-08-26T17:13:03.010Z,1.02
2022-08-26T17:15:30.531Z,1.70
2022-08-26T17:17:58.107Z,1.30
2022-08-26T17:20:26.379Z,1.27
2022-08-26T17:22:55.152Z,0.80
2022-08-26T17:25:29.422Z,1.20
2022-08-26T17:30:30.934Z,0.95
2022-08-26T17:32:58.597Z,1.40
2022-08-26T17:35:27.193Z,0.88
2022-08-26T17:37:56.129Z,1.02
2022-08-26T17:40:25.278Z,1.27
2022-08-26T17:42:53.167Z,1.30
2022-08-26T17:47:55.849Z,1.40
2022-08-26T17:50:23.882Z,1.95
2022-08-26T17:52:51.210Z,1.20
2022-08-26T17:55:19.236Z,0.93
2022-08-26T17:57:53.203Z,1.17
2022-08-26T18:00:26.294Z,1.30
2022-08-26T18:03:24.930Z,1.40
2022-08-26T18:05:53.283Z,1.52
2022-08-26T18:08:20.951Z,1.40
2022-08-26T18:10:48.781Z,2.13
2022-08-26T18:13:16.742Z,1.17
2022-08-26T18:15:46.662Z,1.25
2022-08-26T18:18:14.985Z,1.20
2022-08-26T18:20:44.145Z,1.70
2022-08-26T18:23:12.933Z,1.30
2022-08-26T18:25:43.612Z,1.05
2022-08-26T18:28:11.067Z,1.20
2022-08-26T18:30:38.727Z,1.33
2022-08-26T18:33:06.206Z,1.40
2022-08-26T18:35:39.277Z,1.05
2022-08-26T18:38:10.670Z,1.27
2022-08-26T18:40:40.968Z,1.35
2022-08-26T18:43:08.815Z,1.70
2022-08-26T18:45:36.384Z,1.17
2022-08-26T18:48:04.767Z,1.40
2022-08-26T18:50:32.194Z,1.15
2022-08-26T18:52:59.529Z,1.15
2022-08-26T18:55:26.907Z,1.65
2022-08-26T18:57:54.276Z,1.20
2022-08-26T19:00:21.739Z,1.20
2022-08-26T19:02:51.766Z,1.80
2022-08-26T19:05:19.724Z,1.33
2022-08-26T19:07:47.830Z,1.05
2022-08-26T19:10:15.606Z,1.75
2022-08-26T19:12:43.910Z,2.05
2022-08-26T19:15:11.681Z,1.13
2022-08-26T19:17:39.030Z,1.45
2022-08-26T19:20:07.439Z,1.40
2022-08-26T19:22:34.730Z,1.42
2022-08-26T19:25:02.197Z,1.30
2022-08-26T19:27:29.839Z,1.17
2022-08-26T19:29:57.569Z,1.50
2022-08-26T19:32:25.310Z,1.55
2022-08-26T19:34:53.201Z,1.30
2022-08-26T19:37:21.086Z,1.38
2022-08-26T19:39:48.810Z,1.55
2022-08-26T19:42:16.605Z,1.40
2022-08-26T19:45:02.425Z,1.20
2022-08-26T19:47:29.855Z,1.20
2022-08-26T19:49:57.474Z,1.23
2022-08-26T19:52:30.205Z,0.98
2022-08-26T19:54:58.554Z,1.35
2022-08-26T19:57:25.875Z,1.25
2022-08-26T19:59:53.854Z,1.15
2022-08-26T20:02:21.224Z,1.35
2022-08-26T20:04:48.672Z,1.73
2022-08-26T20:07:18.909Z,1.40
2022-08-26T20:09:47.722Z,1.67
2022-08-26T20:12:15.865Z,1.33
2022-08-26T20:14:43.916Z,1.30
2022-08-26T20:17:11.533Z,1.30
2022-08-26T20:19:57.857Z,1.40
2022-08-26T20:22:25.715Z,1.55
2022-08-26T20:24:53.175Z,1.45
2022-08-26T20:27:27.364Z,0.95
2022-08-26T20:30:07.360Z,1.45
2022-08-26T20:32:35.673Z,1.40
2022-08-26T20:35:07.212Z,1.45
2022-08-26T20:37:34.984Z,1.30
2022-08-26T20:40:02.523Z,1.60
2022-08-26T20:42:30.137Z,1.30
2022-08-26T20:44:57.530Z,1.48
2022-08-26T20:47:24.911Z,1.45
2022-08-26T20:49:52.686Z,1.45
2022-08-26T20:52:20.681Z,1.00
2022-08-26T20:54:48.137Z,1.80
2022-08-26T20:57:15.672Z,1.30
2022-08-26T20:59:43.488Z,1.30
2022-08-26T21:02:10.913Z,1.38
2022-08-26T21:04:38.370Z,1.83
2022-08-26T21:07:05.812Z,1.52
2022-08-26T21:09:33.498Z,1.25
2022-08-26T21:12:00.810Z,1.17
2022-08-26T21:14:28.862Z,0.95
2022-08-26T21:16:57.264Z,1.40
2022-08-26T21:19:24.773Z,1.55
2022-08-26T21:21:52.199Z,1.10
2022-08-26T21:24:19.775Z,1.30
2022-08-26T21:26:47.658Z,1.67
2022-08-26T21:29:15.127Z,1.48
2022-08-26T21:31:46.379Z,1.52
2022-08-26T21:34:16.928Z,1.30
2022-08-26T21:36:46.652Z,1.63
2022-08-26T21:39:14.738Z,1.77
2022-08-26T21:41:43.616Z,1.35
2022-08-26T21:44:12.255Z,1.42
2022-08-26T21:46:40.433Z,1.40
2022-08-26T21:49:12.340Z,1.80
2022-08-26T21:51:45.122Z,1.73
2022-08-26T21:54:13.301Z,1.63
2022-08-26T21:56:45.099Z,1.80
2022-08-26T21:59:14.138Z,2.22
2022-08-26T22:01:41.537Z,1.88
2022-08-26T22:04:10.169Z,1.95
2022-08-26T22:06:46.547Z,2.20
2022-08-26T22:09:21.544Z,1.58
2022-08-26T22:11:50.093Z,1.55
2022-08-26T22:14:19.235Z,1.95
2022-08-26T22:16:50.695Z,2.20
2022-08-26T22:19:20.192Z,2.05
2022-08-26T22:21:49.986Z,1.77
2022-08-26T22:24:22.385Z,1.55
2022-08-26T22:26:50.475Z,1.73
2022-08-26T22:29:18.841Z,1.80
2022-08-26T22:31:46.599Z,1.95
2022-08-26T22:34:17.108Z,1.50
2022-08-26T22:36:47.056Z,1.95
2022-08-26T22:39:17.744Z,1.40
2022-08-26T22:41:47.615Z,1.55
2022-08-26T22:44:16.064Z,1.98
2022-08-26T22:46:45.058Z,1.55
2022-08-26T22:49:16.359Z,1.38
2022-08-26T22:51:46.799Z,1.92
2022-08-26T22:54:14.867Z,1.63
2022-08-26T22:56:44.146Z,1.50
2022-08-26T22:59:12.427Z,1.90
2022-08-26T23:01:43.222Z,2.45
2022-08-26T23:04:11.105Z,1.60
2022-08-26T23:06:42.989Z,1.45
2022-08-26T23:09:10.762Z,2.00
2022-08-26T23:11:42.220Z,1.80
2022-08-26T23:14:10.175Z,1.63
2022-08-26T23:16:41.466Z,1.73
2022-08-26T23:19:11.011Z,1.67
2022-08-26T23:21:38.768Z,2.03
2022-08-26T23:24:07.334Z,2.40
2022-08-26T23:26:35.742Z,1.85
2022-08-26T23:29:04.827Z,2.20
2022-08-26T23:31:32.672Z,1.67
2022-08-26T23:34:19.065Z,1.60
2022-08-26T23:36:46.937Z,1.90
2022-08-26T23:39:15.347Z,2.25
2022-08-26T23:41:42.973Z,2.00
2022-08-26T23:44:10.967Z,2.20
2022-08-26T23:46:38.587Z,1.95
2022-08-26T23:49:06.483Z,1.80
2022-08-26T23:51:52.557Z,1.95
2022-08-26T23:54:20.036Z,1.83
2022-08-26T23:56:47.343Z,2.15
2022-08-26T23:59:15.561Z,2.10
